sensor_id;sensor_type;location;lat;lon;timestamp;pressure;altitude;pressure_sealevel;temperature;humidity
54900;BME280;40801;41.924;25.562;2022-08-11T00:02:25;99400.56;;;24.78;46.19
54900;BME280;40801;41.924;25.562;2022-08-11T00:04:53;99406.47;;;24.77;45.99
54900;BME280;40801;41.924;25.562;2022-08-11T00:07:19;99400.25;;;24.62;46.85
54900;BME280;40801;41.924;25.562;2022-08-11T00:09:45;99405.75;;;24.51;46.80
54900;BME280;40801;41.924;25.562;2022-08-11T00:12:13;99409.72;;;24.50;47.23
54900;BME280;40801;41.924;25.562;2022-08-11T00:14:40;99405.78;;;24.44;47.04
54900;BME280;40801;41.924;25.562;2022-08-11T00:17:10;99405.44;;;24.31;48.01
54900;BME280;40801;41.924;25.562;2022-08-11T00:19:41;99411.69;;;24.21;48.25
54900;BME280;40801;41.924;25.562;2022-08-11T00:22:08;99411.31;;;24.12;47.91
54900;BME280;40801;41.924;25.562;2022-08-11T00:24:39;99408.19;;;24.03;48.90
54900;BME280;40801;41.924;25.562;2022-08-11T00:27:06;99407.00;;;23.97;48.35
54900;BME280;40801;41.924;25.562;2022-08-11T00:29:32;99400.31;;;23.91;48.33
54900;BME280;40801;41.924;25.562;2022-08-11T00:32:00;99405.81;;;23.94;48.70
54900;BME280;40801;41.924;25.562;2022-08-11T00:34:28;99414.88;;;23.84;49.06
54900;BME280;40801;41.924;25.562;2022-08-11T00:37:02;99410.53;;;23.76;49.14
54900;BME280;40801;41.924;25.562;2022-08-11T00:39:31;99415.66;;;23.74;49.35
54900;BME280;40801;41.924;25.562;2022-08-11T00:47:17;99404.63;;;23.63;49.71
54900;BME280;40801;41.924;25.562;2022-08-11T01:04:30;99406.50;;;23.34;51.31
54900;BME280;40801;41.924;25.562;2022-08-11T01:07:17;99410.88;;;23.42;50.39
54900;BME280;40801;41.924;25.562;2022-08-11T01:33:14;99413.50;;;23.10;52.13
54900;BME280;40801;41.924;25.562;2022-08-11T01:45:54;99409.16;;;22.99;51.62
54900;BME280;40801;41.924;25.562;2022-08-11T01:48:39;99413.06;;;22.98;52.04
54900;BME280;40801;41.924;25.562;2022-08-11T01:59:40;99405.09;;;22.78;52.93
54900;BME280;40801;41.924;25.562;2022-08-11T02:11:02;99401.66;;;22.89;52.89
54900;BME280;40801;41.924;25.562;2022-08-11T02:14:01;99398.13;;;22.92;52.77
54900;BME280;40801;41.924;25.562;2022-08-11T02:20:21;99402.06;;;22.98;52.10
54900;BME280;40801;41.924;25.562;2022-08-11T02:22:47;99399.34;;;23.01;52.03
54900;BME280;40801;41.924;25.562;2022-08-11T02:25:44;99402.09;;;23.08;51.70
54900;BME280;40801;41.924;25.562;2022-08-11T02:28:36;99387.16;;;23.09;52.44
54900;BME280;40801;41.924;25.562;2022-08-11T02:31:18;99385.25;;;23.13;52.08
54900;BME280;40801;41.924;25.562;2022-08-11T02:42:28;99388.81;;;23.32;51.23
54900;BME280;40801;41.924;25.562;2022-08-11T02:46:00;99388.41;;;23.33;51.67
54900;BME280;40801;41.924;25.562;2022-08-11T02:48:24;99393.13;;;23.33;51.16
54900;BME280;40801;41.924;25.562;2022-08-11T02:51:23;99402.16;;;23.30;51.30
54900;BME280;40801;41.924;25.562;2022-08-11T02:56:57;99411.22;;;23.34;51.16
54900;BME280;40801;41.924;25.562;2022-08-11T03:14:20;99405.66;;;23.12;52.07
54900;BME280;40801;41.924;25.562;2022-08-11T03:20:44;99400.16;;;23.12;51.21
54900;BME280;40801;41.924;25.562;2022-08-11T03:23:17;99410.75;;;23.07;51.35
54900;BME280;40801;41.924;25.562;2022-08-11T03:33:24;99419.00;;;23.10;51.46
54900;BME280;40801;41.924;25.562;2022-08-11T04:22:25;99449.50;;;24.10;50.45
54900;BME280;40801;41.924;25.562;2022-08-11T04:30:06;99456.59;;;24.15;51.25
54900;BME280;40801;41.924;25.562;2022-08-11T04:41:32;99457.78;;;24.38;49.20
54900;BME280;40801;41.924;25.562;2022-08-11T04:48:05;99468.41;;;24.44;48.04
54900;BME280;40801;41.924;25.562;2022-08-11T04:54:30;99465.66;;;24.44;47.58
54900;BME280;40801;41.924;25.562;2022-08-11T04:57:36;99464.06;;;24.50;47.80
54900;BME280;40801;41.924;25.562;2022-08-11T05:00:29;99465.63;;;24.61;47.85
54900;BME280;40801;41.924;25.562;2022-08-11T05:06:56;99469.16;;;24.73;47.91
54900;BME280;40801;41.924;25.562;2022-08-11T05:12:54;99475.09;;;24.64;46.56
54900;BME280;40801;41.924;25.562;2022-08-11T05:15:35;99472.31;;;24.64;46.13
54900;BME280;40801;41.924;25.562;2022-08-11T05:18:28;99477.03;;;24.70;46.59
54900;BME280;40801;41.924;25.562;2022-08-11T05:21:24;99472.34;;;24.60;46.53
54900;BME280;40801;41.924;25.562;2022-08-11T05:24:18;99472.31;;;24.71;46.12
54900;BME280;40801;41.924;25.562;2022-08-11T05:27:06;99471.16;;;24.65;46.25
54900;BME280;40801;41.924;25.562;2022-08-11T05:33:14;99474.69;;;24.51;46.43
54900;BME280;40801;41.924;25.562;2022-08-11T05:36:23;99473.50;;;24.52;47.03
54900;BME280;40801;41.924;25.562;2022-08-11T05:38:57;99476.66;;;24.51;46.67
54900;BME280;40801;41.924;25.562;2022-08-11T05:41:42;99478.63;;;24.64;46.43
54900;BME280;40801;41.924;25.562;2022-08-11T05:44:27;99479.34;;;24.83;45.57
54900;BME280;40801;41.924;25.562;2022-08-11T05:47:21;99475.47;;;24.66;45.44
54900;BME280;40801;41.924;25.562;2022-08-11T05:50:09;99468.00;;;24.49;45.88
54900;BME280;40801;41.924;25.562;2022-08-11T05:52:54;99478.63;;;24.54;45.74
54900;BME280;40801;41.924;25.562;2022-08-11T05:55:40;99464.06;;;24.50;45.75
54900;BME280;40801;41.924;25.562;2022-08-11T05:58:33;99461.72;;;24.45;46.51
54900;BME280;40801;41.924;25.562;2022-08-11T06:00:59;99463.28;;;24.53;46.42
54900;BME280;40801;41.924;25.562;2022-08-11T06:03:28;99457.00;;;24.45;45.81
54900;BME280;40801;41.924;25.562;2022-08-11T06:05:56;99457.75;;;24.60;45.13
54900;BME280;40801;41.924;25.562;2022-08-11T06:08:29;99465.59;;;24.72;45.05
54900;BME280;40801;41.924;25.562;2022-08-11T06:11:04;99466.03;;;24.63;44.85
54900;BME280;40801;41.924;25.562;2022-08-11T06:13:30;99465.56;;;24.93;44.57
54900;BME280;40801;41.924;25.562;2022-08-11T06:15:57;99468.25;;;25.22;43.95
54900;BME280;40801;41.924;25.562;2022-08-11T06:18:23;99458.56;;;25.58;43.59
54900;BME280;40801;41.924;25.562;2022-08-11T06:20:51;99455.22;;;25.92;42.39
54900;BME280;40801;41.924;25.562;2022-08-11T06:23:19;99464.06;;;26.21;42.36
54900;BME280;40801;41.924;25.562;2022-08-11T06:25:48;99459.47;;;26.52;41.65
54900;BME280;40801;41.924;25.562;2022-08-11T06:28:15;99471.56;;;26.69;41.12
54900;BME280;40801;41.924;25.562;2022-08-11T06:30:44;99453.97;;;26.86;40.64
54900;BME280;40801;41.924;25.562;2022-08-11T06:33:18;99464.50;;;27.32;39.95
54900;BME280;40801;41.924;25.562;2022-08-11T06:41:45;99456.88;;;27.70;38.37
54900;BME280;40801;41.924;25.562;2022-08-11T06:46:49;99455.56;;;28.05;37.21
54900;BME280;40801;41.924;25.562;2022-08-11T06:49:17;99453.56;;;28.53;37.56
54900;BME280;40801;41.924;25.562;2022-08-11T06:52:12;99456.34;;;28.96;35.88
54900;BME280;40801;41.924;25.562;2022-08-11T06:54:42;99453.53;;;29.36;36.22
54900;BME280;40801;41.924;25.562;2022-08-11T06:57:11;99452.22;;;29.60;36.24
54900;BME280;40801;41.924;25.562;2022-08-11T06:59:58;99447.88;;;29.39;35.75
54900;BME280;40801;41.924;25.562;2022-08-11T07:02:48;99444.78;;;29.89;35.34
54900;BME280;40801;41.924;25.562;2022-08-11T07:05:24;99453.03;;;29.93;34.81
54900;BME280;40801;41.924;25.562;2022-08-11T07:14:30;99443.19;;;30.82;33.38
54900;BME280;40801;41.924;25.562;2022-08-11T07:17:21;99450.84;;;30.95;32.73
54900;BME280;40801;41.924;25.562;2022-08-11T07:19:54;99439.59;;;31.11;32.16
54900;BME280;40801;41.924;25.562;2022-08-11T07:22:40;99444.13;;;31.34;31.92
54900;BME280;40801;41.924;25.562;2022-08-11T07:25:28;99442.91;;;31.35;32.13
54900;BME280;40801;41.924;25.562;2022-08-11T07:28:23;99452.56;;;30.89;32.12
54900;BME280;40801;41.924;25.562;2022-08-11T07:31:10;99446.16;;;31.04;32.20
54900;BME280;40801;41.924;25.562;2022-08-11T07:33:49;99446.25;;;31.42;31.74
54900;BME280;40801;41.924;25.562;2022-08-11T07:36:16;99443.94;;;31.54;31.83
54900;BME280;40801;41.924;25.562;2022-08-11T07:38:46;99442.94;;;31.86;31.34
54900;BME280;40801;41.924;25.562;2022-08-11T07:41:17;99449.94;;;31.65;31.45
54900;BME280;40801;41.924;25.562;2022-08-11T07:43:46;99450.38;;;31.38;31.56
54900;BME280;40801;41.924;25.562;2022-08-11T07:46:13;99447.94;;;31.53;31.54
54900;BME280;40801;41.924;25.562;2022-08-11T07:48:58;99447.06;;;31.56;31.56
54900;BME280;40801;41.924;25.562;2022-08-11T07:51:43;99448.84;;;31.75;31.23
54900;BME280;40801;41.924;25.562;2022-08-11T07:54:29;99444.47;;;31.99;31.15
54900;BME280;40801;41.924;25.562;2022-08-11T07:56:55;99447.97;;;32.38;30.64
54900;BME280;40801;41.924;25.562;2022-08-11T07:59:22;99449.38;;;32.55;30.45
54900;BME280;40801;41.924;25.562;2022-08-11T08:02:07;99443.47;;;32.53;30.02
54900;BME280;40801;41.924;25.562;2022-08-11T08:04:51;99443.25;;;33.04;29.78
54900;BME280;40801;41.924;25.562;2022-08-11T08:07:36;99448.38;;;33.28;29.27
54900;BME280;40801;41.924;25.562;2022-08-11T08:10:21;99440.16;;;33.55;28.45
54900;BME280;40801;41.924;25.562;2022-08-11T08:13:06;99438.75;;;34.09;28.41
54900;BME280;40801;41.924;25.562;2022-08-11T08:15:52;99432.09;;;34.25;27.70
54900;BME280;40801;41.924;25.562;2022-08-11T08:18:37;99436.56;;;34.04;27.72
54900;BME280;40801;41.924;25.562;2022-08-11T08:21:04;99429.19;;;34.56;27.67
54900;BME280;40801;41.924;25.562;2022-08-11T08:23:38;99426.84;;;35.00;26.74
54900;BME280;40801;41.924;25.562;2022-08-11T08:26:08;99435.13;;;35.46;26.51
54900;BME280;40801;41.924;25.562;2022-08-11T08:28:54;99427.38;;;35.41;25.69
54900;BME280;40801;41.924;25.562;2022-08-11T08:31:40;99416.72;;;34.93;26.00
54900;BME280;40801;41.924;25.562;2022-08-11T08:34:08;99426.06;;;34.63;26.14
54900;BME280;40801;41.924;25.562;2022-08-11T08:36:34;99419.84;;;34.59;26.63
54900;BME280;40801;41.924;25.562;2022-08-11T08:39:00;99418.28;;;34.94;26.31
54900;BME280;40801;41.924;25.562;2022-08-11T08:41:31;99419.59;;;35.26;25.73
54900;BME280;40801;41.924;25.562;2022-08-11T08:44:05;99408.59;;;35.56;25.35
54900;BME280;40801;41.924;25.562;2022-08-11T08:46:36;99411.03;;;35.30;26.27
54900;BME280;40801;41.924;25.562;2022-08-11T08:49:04;99407.78;;;35.97;25.87
54900;BME280;40801;41.924;25.562;2022-08-11T08:51:34;99410.00;;;36.17;24.96
54900;BME280;40801;41.924;25.562;2022-08-11T08:54:07;99421.38;;;36.76;24.22
54900;BME280;40801;41.924;25.562;2022-08-11T08:56:34;99407.53;;;36.73;24.67
54900;BME280;40801;41.924;25.562;2022-08-11T08:59:02;99402.75;;;36.64;24.29
54900;BME280;40801;41.924;25.562;2022-08-11T09:01:32;99404.50;;;36.76;23.78
54900;BME280;40801;41.924;25.562;2022-08-11T09:04:00;99408.88;;;36.77;23.97
54900;BME280;40801;41.924;25.562;2022-08-11T09:06:29;99402.06;;;36.69;23.85
54900;BME280;40801;41.924;25.562;2022-08-11T09:08:56;99402.81;;;37.08;23.26
54900;BME280;40801;41.924;25.562;2022-08-11T09:11:22;99391.69;;;37.49;22.79
54900;BME280;40801;41.924;25.562;2022-08-11T09:14:11;99384.88;;;37.06;23.07
54900;BME280;40801;41.924;25.562;2022-08-11T09:16:37;99384.06;;;36.76;23.55
54900;BME280;40801;41.924;25.562;2022-08-11T09:19:04;99391.88;;;36.72;23.39
54900;BME280;40801;41.924;25.562;2022-08-11T09:21:31;99395.13;;;37.09;23.38
54900;BME280;40801;41.924;25.562;2022-08-11T09:23:58;99388.34;;;37.15;23.09
54900;BME280;40801;41.924;25.562;2022-08-11T09:26:43;99387.06;;;37.16;22.94
54900;BME280;40801;41.924;25.562;2022-08-11T09:29:26;99378.41;;;37.49;22.56
54900;BME280;40801;41.924;25.562;2022-08-11T09:31:53;99378.44;;;37.70;22.80
54900;BME280;40801;41.924;25.562;2022-08-11T09:34:19;99380.56;;;38.16;22.07
54900;BME280;40801;41.924;25.562;2022-08-11T09:36:45;99371.13;;;38.59;21.97
54900;BME280;40801;41.924;25.562;2022-08-11T09:39:30;99381.34;;;38.16;21.82
54900;BME280;40801;41.924;25.562;2022-08-11T09:42:15;99378.66;;;36.87;22.23
54900;BME280;40801;41.924;25.562;2022-08-11T09:44:44;99366.81;;;37.27;22.20
54900;BME280;40801;41.924;25.562;2022-08-11T09:47:24;99366.03;;;37.97;21.75
54900;BME280;40801;41.924;25.562;2022-08-11T09:49:57;99365.19;;;38.31;21.45
54900;BME280;40801;41.924;25.562;2022-08-11T09:52:28;99356.47;;;38.55;21.29
54900;BME280;40801;41.924;25.562;2022-08-11T09:54:55;99362.84;;;38.30;21.46
54900;BME280;40801;41.924;25.562;2022-08-11T09:57:21;99352.09;;;38.28;21.50
54900;BME280;40801;41.924;25.562;2022-08-11T10:00:10;99349.72;;;38.73;21.25
54900;BME280;40801;41.924;25.562;2022-08-11T10:02:45;99344.13;;;39.36;20.85
54900;BME280;40801;41.924;25.562;2022-08-11T10:05:14;99333.50;;;39.62;20.50
54900;BME280;40801;41.924;25.562;2022-08-11T10:08:11;99347.88;;;39.27;20.20
54900;BME280;40801;41.924;25.562;2022-08-11T10:10:39;99342.31;;;39.81;20.42
54900;BME280;40801;41.924;25.562;2022-08-11T10:13:13;99337.13;;;39.69;19.73
54900;BME280;40801;41.924;25.562;2022-08-11T10:15:40;99338.28;;;39.93;19.86
54900;BME280;40801;41.924;25.562;2022-08-11T10:18:14;99342.69;;;40.00;19.83
54900;BME280;40801;41.924;25.562;2022-08-11T10:21:06;99333.94;;;39.98;19.28
54900;BME280;40801;41.924;25.562;2022-08-11T10:23:35;99339.47;;;40.46;19.08
54900;BME280;40801;41.924;25.562;2022-08-11T10:26:20;99348.34;;;39.57;19.48
54900;BME280;40801;41.924;25.562;2022-08-11T10:29:05;99343.88;;;39.40;19.64
54900;BME280;40801;41.924;25.562;2022-08-11T10:31:54;99337.59;;;39.24;20.30
54900;BME280;40801;41.924;25.562;2022-08-11T10:34:38;99333.81;;;39.70;19.84
54900;BME280;40801;41.924;25.562;2022-08-11T10:37:05;99315.06;;;39.73;19.53
54900;BME280;40801;41.924;25.562;2022-08-11T10:39:31;99317.06;;;40.26;18.97
54900;BME280;40801;41.924;25.562;2022-08-11T10:41:57;99313.53;;;39.29;19.90
54900;BME280;40801;41.924;25.562;2022-08-11T10:44:49;99312.56;;;39.38;19.59
54900;BME280;40801;41.924;25.562;2022-08-11T10:47:15;99320.78;;;39.04;20.10
54900;BME280;40801;41.924;25.562;2022-08-11T10:50:09;99313.94;;;40.13;18.74
54900;BME280;40801;41.924;25.562;2022-08-11T10:52:54;99305.56;;;39.70;19.76
54900;BME280;40801;41.924;25.562;2022-08-11T10:55:42;99303.75;;;39.24;19.89
54900;BME280;40801;41.924;25.562;2022-08-11T10:58:26;99310.59;;;40.14;19.61
54900;BME280;40801;41.924;25.562;2022-08-11T11:01:11;99307.06;;;40.25;19.25
54900;BME280;40801;41.924;25.562;2022-08-11T11:03:39;99302.69;;;40.35;19.09
54900;BME280;40801;41.924;25.562;2022-08-11T11:06:29;99296.06;;;40.49;18.96
54900;BME280;40801;41.924;25.562;2022-08-11T11:09:07;99299.19;;;40.85;17.78
54900;BME280;40801;41.924;25.562;2022-08-11T11:11:44;99295.03;;;41.25;17.33
54900;BME280;40801;41.924;25.562;2022-08-11T11:14:40;99295.19;;;41.55;17.89
54900;BME280;40801;41.924;25.562;2022-08-11T11:17:27;99290.94;;;41.95;17.29
54900;BME280;40801;41.924;25.562;2022-08-11T11:20:16;99278.47;;;41.52;17.52
54900;BME280;40801;41.924;25.562;2022-08-11T11:22:43;99294.47;;;41.43;17.75
54900;BME280;40801;41.924;25.562;2022-08-11T11:28:27;99291.19;;;41.11;18.23
54900;BME280;40801;41.924;25.562;2022-08-11T11:38:58;99288.84;;;41.27;17.65
54900;BME280;40801;41.924;25.562;2022-08-11T11:41:26;99282.53;;;41.73;17.37
54900;BME280;40801;41.924;25.562;2022-08-11T11:43:56;99270.22;;;41.59;17.27
54900;BME280;40801;41.924;25.562;2022-08-11T11:46:25;99262.13;;;41.86;17.17
54900;BME280;40801;41.924;25.562;2022-08-11T11:48:53;99265.03;;;42.21;17.11
54900;BME280;40801;41.924;25.562;2022-08-11T11:51:20;99262.88;;;41.17;17.50
54900;BME280;40801;41.924;25.562;2022-08-11T11:53:47;99250.81;;;40.94;18.10
54900;BME280;40801;41.924;25.562;2022-08-11T11:56:14;99261.53;;;41.46;18.08
54900;BME280;40801;41.924;25.562;2022-08-11T11:58:41;99245.19;;;40.77;17.74
54900;BME280;40801;41.924;25.562;2022-08-11T12:01:26;99243.88;;;40.28;18.83
54900;BME280;40801;41.924;25.562;2022-08-11T12:03:53;99237.34;;;38.92;19.27
54900;BME280;40801;41.924;25.562;2022-08-11T12:06:21;99232.06;;;38.42;19.79
54900;BME280;40801;41.924;25.562;2022-08-11T12:08:49;99238.66;;;38.07;20.68
54900;BME280;40801;41.924;25.562;2022-08-11T12:11:16;99233.50;;;38.06;20.87
54900;BME280;40801;41.924;25.562;2022-08-11T12:14:04;99225.19;;;39.06;19.65
54900;BME280;40801;41.924;25.562;2022-08-11T12:16:30;99232.31;;;40.20;19.09
54900;BME280;40801;41.924;25.562;2022-08-11T12:18:59;99228.03;;;39.66;18.33
54900;BME280;40801;41.924;25.562;2022-08-11T12:21:26;99230.50;;;40.23;18.68
54900;BME280;40801;41.924;25.562;2022-08-11T12:23:54;99228.16;;;40.16;18.32
54900;BME280;40801;41.924;25.562;2022-08-11T12:26:39;99228.22;;;40.55;18.42
54900;BME280;40801;41.924;25.562;2022-08-11T12:29:19;99226.38;;;41.02;17.65
54900;BME280;40801;41.924;25.562;2022-08-11T12:31:47;99221.72;;;41.16;17.53
54900;BME280;40801;41.924;25.562;2022-08-11T12:34:16;99206.16;;;41.51;17.07
54900;BME280;40801;41.924;25.562;2022-08-11T12:39:15;99217.66;;;40.89;17.76
54900;BME280;40801;41.924;25.562;2022-08-11T12:41:43;99221.25;;;40.22;18.85
54900;BME280;40801;41.924;25.562;2022-08-11T12:44:28;99209.91;;;40.00;18.72
54900;BME280;40801;41.924;25.562;2022-08-11T12:47:16;99221.25;;;40.34;18.32
54900;BME280;40801;41.924;25.562;2022-08-11T12:49:48;99213.81;;;40.70;17.75
54900;BME280;40801;41.924;25.562;2022-08-11T12:52:48;99206.34;;;40.95;17.36
54900;BME280;40801;41.924;25.562;2022-08-11T12:55:21;99202.59;;;41.44;17.46
54900;BME280;40801;41.924;25.562;2022-08-11T12:58:08;99200.41;;;41.73;17.25
54900;BME280;40801;41.924;25.562;2022-08-11T13:00:43;99191.84;;;42.25;16.73
54900;BME280;40801;41.924;25.562;2022-08-11T13:03:27;99197.63;;;42.09;16.81
54900;BME280;40801;41.924;25.562;2022-08-11T13:06:12;99203.59;;;41.99;16.94
54900;BME280;40801;41.924;25.562;2022-08-11T13:08:38;99192.84;;;42.28;16.83
54900;BME280;40801;41.924;25.562;2022-08-11T13:11:05;99203.09;;;41.49;17.14
54900;BME280;40801;41.924;25.562;2022-08-11T13:13:51;99196.31;;;41.68;16.50
54900;BME280;40801;41.924;25.562;2022-08-11T13:16:21;99194.78;;;41.67;16.91
54900;BME280;40801;41.924;25.562;2022-08-11T13:18:48;99199.63;;;41.72;16.79
54900;BME280;40801;41.924;25.562;2022-08-11T13:21:15;99199.91;;;40.94;16.79
54900;BME280;40801;41.924;25.562;2022-08-11T13:23:41;99197.78;;;39.72;18.65
54900;BME280;40801;41.924;25.562;2022-08-11T13:26:07;99191.16;;;39.91;18.50
54900;BME280;40801;41.924;25.562;2022-08-11T13:28:35;99188.38;;;40.31;18.29
54900;BME280;40801;41.924;25.562;2022-08-11T13:31:02;99195.31;;;40.80;18.02
54900;BME280;40801;41.924;25.562;2022-08-11T13:33:46;99187.59;;;40.86;17.58
54900;BME280;40801;41.924;25.562;2022-08-11T13:36:26;99186.66;;;41.41;17.00
54900;BME280;40801;41.924;25.562;2022-08-11T13:38:54;99191.59;;;41.82;17.00
54900;BME280;40801;41.924;25.562;2022-08-11T13:41:23;99177.81;;;42.03;16.33
54900;BME280;40801;41.924;25.562;2022-08-11T13:44:07;99186.78;;;41.71;16.93
54900;BME280;40801;41.924;25.562;2022-08-11T13:46:34;99180.09;;;42.10;16.49
54900;BME280;40801;41.924;25.562;2022-08-11T13:49:00;99167.63;;;41.83;16.62
54900;BME280;40801;41.924;25.562;2022-08-11T13:51:26;99184.44;;;41.06;17.49
54900;BME280;40801;41.924;25.562;2022-08-11T13:54:01;99186.31;;;40.59;17.77
54900;BME280;40801;41.924;25.562;2022-08-11T13:56:28;99175.97;;;39.07;18.26
54900;BME280;40801;41.924;25.562;2022-08-11T13:58:55;99172.22;;;38.53;19.36
54900;BME280;40801;41.924;25.562;2022-08-11T14:01:24;99167.69;;;37.57;19.88
54900;BME280;40801;41.924;25.562;2022-08-11T14:03:52;99175.91;;;37.00;20.41
54900;BME280;40801;41.924;25.562;2022-08-11T14:06:18;99173.41;;;37.63;20.49
54900;BME280;40801;41.924;25.562;2022-08-11T14:08:46;99174.59;;;38.02;20.27
54900;BME280;40801;41.924;25.562;2022-08-11T14:11:14;99165.53;;;38.82;19.19
54900;BME280;40801;41.924;25.562;2022-08-11T14:14:00;99170.03;;;39.05;18.75
54900;BME280;40801;41.924;25.562;2022-08-11T14:16:28;99167.38;;;37.49;20.12
54900;BME280;40801;41.924;25.562;2022-08-11T14:19:03;99170.53;;;37.16;21.19
54900;BME280;40801;41.924;25.562;2022-08-11T14:21:34;99175.63;;;36.63;21.33
54900;BME280;40801;41.924;25.562;2022-08-11T14:24:19;99175.28;;;36.90;20.96
54900;BME280;40801;41.924;25.562;2022-08-11T14:26:47;99175.50;;;36.72;21.65
54900;BME280;40801;41.924;25.562;2022-08-11T14:29:17;99174.91;;;36.33;21.95
54900;BME280;40801;41.924;25.562;2022-08-11T14:34:11;99178.84;;;37.26;21.34
54900;BME280;40801;41.924;25.562;2022-08-11T14:36:43;99170.59;;;37.22;20.95
54900;BME280;40801;41.924;25.562;2022-08-11T14:39:15;99176.22;;;37.22;21.24
54900;BME280;40801;41.924;25.562;2022-08-11T14:41:45;99168.81;;;37.86;20.21
54900;BME280;40801;41.924;25.562;2022-08-11T14:44:31;99171.88;;;38.13;20.29
54900;BME280;40801;41.924;25.562;2022-08-11T14:47:17;99163.44;;;38.13;20.41
54900;BME280;40801;41.924;25.562;2022-08-11T14:49:45;99170.44;;;38.50;20.06
54900;BME280;40801;41.924;25.562;2022-08-11T14:52:15;99168.38;;;38.19;19.75
54900;BME280;40801;41.924;25.562;2022-08-11T14:54:47;99163.94;;;37.60;21.31
54900;BME280;40801;41.924;25.562;2022-08-11T14:57:35;99157.94;;;37.12;21.21
54900;BME280;40801;41.924;25.562;2022-08-11T15:00:03;99172.69;;;36.86;21.44
54900;BME280;40801;41.924;25.562;2022-08-11T15:02:29;99171.97;;;35.97;22.52
54900;BME280;40801;41.924;25.562;2022-08-11T15:05:13;99178.22;;;35.78;22.49
54900;BME280;40801;41.924;25.562;2022-08-11T15:07:39;99175.03;;;34.98;23.19
54900;BME280;40801;41.924;25.562;2022-08-11T15:10:06;99167.38;;;35.08;23.57
54900;BME280;40801;41.924;25.562;2022-08-11T15:12:33;99175.03;;;34.23;23.74
54900;BME280;40801;41.924;25.562;2022-08-11T15:15:02;99179.19;;;34.37;24.21
54900;BME280;40801;41.924;25.562;2022-08-11T15:17:48;99171.19;;;34.02;24.29
54900;BME280;40801;41.924;25.562;2022-08-11T15:20:17;99161.53;;;34.03;24.57
54900;BME280;40801;41.924;25.562;2022-08-11T15:23:02;99174.13;;;33.99;24.81
54900;BME280;40801;41.924;25.562;2022-08-11T15:25:50;99171.16;;;34.11;24.84
54900;BME280;40801;41.924;25.562;2022-08-11T15:28:18;99165.75;;;33.99;24.41
54900;BME280;40801;41.924;25.562;2022-08-11T15:31:03;99163.41;;;33.97;24.34
54900;BME280;40801;41.924;25.562;2022-08-11T15:33:50;99174.00;;;33.93;24.90
54900;BME280;40801;41.924;25.562;2022-08-11T15:36:35;99163.72;;;33.81;24.78
54900;BME280;40801;41.924;25.562;2022-08-11T15:39:31;99161.41;;;33.61;25.29
54900;BME280;40801;41.924;25.562;2022-08-11T15:42:03;99170.72;;;33.67;25.55
54900;BME280;40801;41.924;25.562;2022-08-11T15:45:06;99171.03;;;33.51;26.00
54900;BME280;40801;41.924;25.562;2022-08-11T15:47:55;99168.06;;;33.27;26.22
54900;BME280;40801;41.924;25.562;2022-08-11T15:50:25;99169.66;;;33.37;25.71
54900;BME280;40801;41.924;25.562;2022-08-11T15:53:03;99168.38;;;33.29;25.93
54900;BME280;40801;41.924;25.562;2022-08-11T15:55:33;99173.94;;;33.11;25.87
54900;BME280;40801;41.924;25.562;2022-08-11T15:58:02;99174.25;;;33.13;26.15
54900;BME280;40801;41.924;25.562;2022-08-11T16:00:49;99180.25;;;32.93;26.84
54900;BME280;40801;41.924;25.562;2022-08-11T16:03:40;99183.75;;;32.75;26.79
54900;BME280;40801;41.924;25.562;2022-08-11T16:06:25;99178.97;;;32.45;26.83
54900;BME280;40801;41.924;25.562;2022-08-11T16:08:52;99183.63;;;32.48;26.83
54900;BME280;40801;41.924;25.562;2022-08-11T16:11:21;99181.00;;;32.22;26.81
54900;BME280;40801;41.924;25.562;2022-08-11T16:13:49;99188.72;;;32.18;26.97
54900;BME280;40801;41.924;25.562;2022-08-11T16:16:34;99192.69;;;32.08;27.15
54900;BME280;40801;41.924;25.562;2022-08-11T16:19:01;99189.91;;;31.86;27.46
54900;BME280;40801;41.924;25.562;2022-08-11T16:21:35;99190.16;;;31.79;27.42
54900;BME280;40801;41.924;25.562;2022-08-11T16:24:07;99195.13;;;31.62;27.65
54900;BME280;40801;41.924;25.562;2022-08-11T16:26:36;99194.81;;;31.48;27.94
54900;BME280;40801;41.924;25.562;2022-08-11T16:29:04;99192.03;;;31.48;27.89
54900;BME280;40801;41.924;25.562;2022-08-11T16:31:31;99201.19;;;31.48;27.85
54900;BME280;40801;41.924;25.562;2022-08-11T16:33:59;99200.13;;;31.20;28.15
54900;BME280;40801;41.924;25.562;2022-08-11T16:36:27;99204.84;;;31.23;27.93
54900;BME280;40801;41.924;25.562;2022-08-11T16:39:13;99213.41;;;31.16;28.27
54900;BME280;40801;41.924;25.562;2022-08-11T16:41:43;99211.16;;;31.11;28.29
54900;BME280;40801;41.924;25.562;2022-08-11T16:44:28;99218.75;;;31.10;28.03
54900;BME280;40801;41.924;25.562;2022-08-11T16:47:14;99221.31;;;31.05;28.60
54900;BME280;40801;41.924;25.562;2022-08-11T16:49:48;99219.44;;;30.89;28.90
54900;BME280;40801;41.924;25.562;2022-08-11T16:52:16;99221.56;;;30.72;28.73
54900;BME280;40801;41.924;25.562;2022-08-11T16:54:42;99224.06;;;30.54;29.34
54900;BME280;40801;41.924;25.562;2022-08-11T16:57:17;99233.75;;;30.49;29.28
54900;BME280;40801;41.924;25.562;2022-08-11T17:00:07;99230.31;;;30.45;29.73
54900;BME280;40801;41.924;25.562;2022-08-11T17:02:40;99234.84;;;30.39;29.71
54900;BME280;40801;41.924;25.562;2022-08-11T17:05:24;99245.72;;;30.34;29.64
54900;BME280;40801;41.924;25.562;2022-08-11T17:08:09;99241.84;;;30.31;29.47
54900;BME280;40801;41.924;25.562;2022-08-11T17:10:59;99246.28;;;30.29;30.06
54900;BME280;40801;41.924;25.562;2022-08-11T17:14:06;99252.06;;;30.21;30.48
54900;BME280;40801;41.924;25.562;2022-08-11T17:16:36;99251.59;;;30.10;30.14
54900;BME280;40801;41.924;25.562;2022-08-11T17:19:22;99248.88;;;30.07;30.71